sensor_id;sensor_type;location;lat;lon;timestamp;noise_LAeq;noise_LA_min;noise_LA_max;noise_LA01;noise_LA95
69620;Laerm;57654;51.434;5.984;2023-07-16T00:00:08;32.16;30.27;37.54;;
69620;Laerm;57654;51.434;5.984;2023-07-16T00:00:20;31.86;29.63;35.64;;
69620;Laerm;57654;51.434;5.984;2023-07-16T00:00:31;32.00;30.14;36.08;;
69620;Laerm;57654;51.434;5.984;2023-07-16T00:00:41;32.38;30.08;40.66;;
69620;Laerm;57654;51.434;5.984;2023-07-16T00:00:51;32.38;30.06;36.26;;
69620;Laerm;57654;51.434;5.984;2023-07-16T00:01:01;32.29;29.81;38.06;;
69620;Laerm;57654;51.434;5.984;2023-07-16T00:01:12;32.68;30.13;38.23;;
69620;Laerm;57654;51.434;5.984;2023-07-16T00:01:22;32.28;30.16;40.10;;
69620;Laerm;57654;51.434;5.984;2023-07-16T00:01:32;32.02;29.72;36.74;;
69620;Laerm;57654;51.434;5.984;2023-07-16T00:01:42;32.02;29.66;38.58;;
69620;Laerm;57654;51.434;5.984;2023-07-16T00:01:53;32.16;30.05;35.23;;
69620;Laerm;57654;51.434;5.984;2023-07-16T00:02:03;32.72;29.63;36.73;;
69620;Laerm;57654;51.434;5.984;2023-07-16T00:02:13;32.76;30.08;37.99;;
69620;Laerm;57654;51.434;5.984;2023-07-16T00:02:24;32.54;29.85;36.97;;
69620;Laerm;57654;51.434;5.984;2023-07-16T00:02:34;32.33;30.01;37.29;;
69620;Laerm;57654;51.434;5.984;2023-07-16T00:02:44;32.12;29.95;36.92;;
69620;Laerm;57654;51.434;5.984;2023-07-16T00:02:55;31.85;29.80;38.92;;
69620;Laerm;57654;51.434;5.984;2023-07-16T00:03:05;31.57;29.34;35.67;;
69620;Laerm;57654;51.434;5.984;2023-07-16T00:03:15;31.72;29.55;37.43;;
69620;Laerm;57654;51.434;5.984;2023-07-16T00:03:25;31.70;29.30;37.12;;
69620;Laerm;57654;51.434;5.984;2023-07-16T00:03:36;32.73;30.38;42.32;;
69620;Laerm;57654;51.434;5.984;2023-07-16T00:03:46;33.49;30.24;37.34;;
69620;Laerm;57654;51.434;5.984;2023-07-16T00:03:56;33.84;30.64;38.33;;
69620;Laerm;57654;51.434;5.984;2023-07-16T00:04:06;33.17;30.65;37.15;;
69620;Laerm;57654;51.434;5.984;2023-07-16T00:04:17;32.33;29.89;37.49;;
69620;Laerm;57654;51.434;5.984;2023-07-16T00:04:27;32.30;29.95;41.43;;
69620;Laerm;57654;51.434;5.984;2023-07-16T00:04:37;32.23;29.70;36.45;;
69620;Laerm;57654;51.434;5.984;2023-07-16T00:04:47;32.84;30.08;36.28;;
69620;Laerm;57654;51.434;5.984;2023-07-16T00:04:58;33.03;30.00;38.88;;
69620;Laerm;57654;51.434;5.984;2023-07-16T00:05:08;33.17;29.97;36.21;;
69620;Laerm;57654;51.434;5.984;2023-07-16T00:05:18;32.47;30.14;35.68;;
69620;Laerm;57654;51.434;5.984;2023-07-16T00:05:29;33.00;29.96;38.90;;
69620;Laerm;57654;51.434;5.984;2023-07-16T00:05:39;33.07;30.28;40.02;;
69620;Laerm;57654;51.434;5.984;2023-07-16T00:05:50;33.53;30.28;38.85;;
69620;Laerm;57654;51.434;5.984;2023-07-16T00:06:01;33.52;29.87;37.88;;
69620;Laerm;57654;51.434;5.984;2023-07-16T00:06:11;32.22;29.89;37.74;;
69620;Laerm;57654;51.434;5.984;2023-07-16T00:06:21;32.21;29.83;37.60;;
69620;Laerm;57654;51.434;5.984;2023-07-16T00:06:31;32.30;29.90;36.97;;
69620;Laerm;57654;51.434;5.984;2023-07-16T00:06:42;32.50;29.96;36.41;;
69620;Laerm;57654;51.434;5.984;2023-07-16T00:06:52;33.15;30.07;37.40;;
69620;Laerm;57654;51.434;5.984;2023-07-16T00:07:02;33.33;29.99;37.30;;
69620;Laerm;57654;51.434;5.984;2023-07-16T00:07:12;33.54;30.43;36.78;;
69620;Laerm;57654;51.434;5.984;2023-07-16T00:07:23;33.03;29.65;39.13;;
69620;Laerm;57654;51.434;5.984;2023-07-16T00:07:33;33.05;30.21;37.84;;
69620;Laerm;57654;51.434;5.984;2023-07-16T00:07:43;33.77;30.17;39.77;;
69620;Laerm;57654;51.434;5.984;2023-07-16T00:07:53;33.82;30.39;39.52;;
69620;Laerm;57654;51.434;5.984;2023-07-16T00:08:04;33.58;30.03;40.11;;
69620;Laerm;57654;51.434;5.984;2023-07-16T00:08:14;33.78;30.58;38.42;;
69620;Laerm;57654;51.434;5.984;2023-07-16T00:08:24;33.75;30.44;38.25;;
69620;Laerm;57654;51.434;5.984;2023-07-16T00:08:34;33.26;29.56;38.99;;
69620;Laerm;57654;51.434;5.984;2023-07-16T00:08:45;32.83;29.74;37.74;;
69620;Laerm;57654;51.434;5.984;2023-07-16T00:08:55;33.07;30.21;36.42;;
69620;Laerm;57654;51.434;5.984;2023-07-16T00:09:05;34.08;30.24;36.77;;
69620;Laerm;57654;51.434;5.984;2023-07-16T00:09:16;33.82;30.74;37.57;;
69620;Laerm;57654;51.434;5.984;2023-07-16T00:09:26;33.54;30.31;39.31;;
69620;Laerm;57654;51.434;5.984;2023-07-16T00:09:36;32.64;30.48;35.85;;
69620;Laerm;57654;51.434;5.984;2023-07-16T00:09:46;32.42;30.19;38.39;;
69620;Laerm;57654;51.434;5.984;2023-07-16T00:09:57;32.24;30.09;37.86;;
69620;Laerm;57654;51.434;5.984;2023-07-16T00:10:07;32.11;30.12;36.58;;
69620;Laerm;57654;51.434;5.984;2023-07-16T00:10:17;31.97;30.01;35.36;;
69620;Laerm;57654;51.434;5.984;2023-07-16T00:10:28;32.59;29.98;42.16;;
69620;Laerm;57654;51.434;5.984;2023-07-16T00:10:38;32.54;30.21;37.93;;
69620;Laerm;57654;51.434;5.984;2023-07-16T00:10:48;32.48;30.19;38.94;;
69620;Laerm;57654;51.434;5.984;2023-07-16T00:10:58;32.62;30.21;36.62;;
69620;Laerm;57654;51.434;5.984;2023-07-16T00:11:09;33.45;30.40;37.84;;
69620;Laerm;57654;51.434;5.984;2023-07-16T00:11:19;33.69;30.03;37.44;;
69620;Laerm;57654;51.434;5.984;2023-07-16T00:11:29;32.90;30.19;36.08;;
69620;Laerm;57654;51.434;5.984;2023-07-16T00:11:40;32.75;29.83;39.28;;
69620;Laerm;57654;51.434;5.984;2023-07-16T00:11:50;32.74;30.24;36.26;;
69620;Laerm;57654;51.434;5.984;2023-07-16T00:12:00;34.00;30.37;38.82;;
69620;Laerm;57654;51.434;5.984;2023-07-16T00:12:11;34.11;30.47;38.00;;
69620;Laerm;57654;51.434;5.984;2023-07-16T00:12:21;33.25;30.07;42.86;;
69620;Laerm;57654;51.434;5.984;2023-07-16T00:12:31;33.57;31.00;38.12;;
69620;Laerm;57654;51.434;5.984;2023-07-16T00:12:41;33.22;30.02;37.49;;
69620;Laerm;57654;51.434;5.984;2023-07-16T00:12:52;32.56;29.72;37.84;;
69620;Laerm;57654;51.434;5.984;2023-07-16T00:13:03;32.07;30.27;36.33;;
69620;Laerm;57654;51.434;5.984;2023-07-16T00:13:13;32.07;30.17;36.43;;
69620;Laerm;57654;51.434;5.984;2023-07-16T00:13:23;32.39;29.73;38.35;;
69620;Laerm;57654;51.434;5.984;2023-07-16T00:13:34;32.60;29.83;38.96;;
69620;Laerm;57654;51.434;5.984;2023-07-16T00:13:44;32.78;30.07;43.05;;
69620;Laerm;57654;51.434;5.984;2023-07-16T00:13:57;36.95;30.49;57.51;;
69620;Laerm;57654;51.434;5.984;2023-07-16T00:14:07;32.60;29.97;38.46;;
69620;Laerm;57654;51.434;5.984;2023-07-16T00:14:17;32.47;29.30;35.70;;
69620;Laerm;57654;51.434;5.984;2023-07-16T00:14:27;33.28;30.73;37.83;;
69620;Laerm;57654;51.434;5.984;2023-07-16T00:14:38;33.60;30.20;37.59;;
69620;Laerm;57654;51.434;5.984;2023-07-16T00:14:48;33.75;30.34;36.86;;
69620;Laerm;57654;51.434;5.984;2023-07-16T00:14:58;34.03;30.39;37.63;;
69620;Laerm;57654;51.434;5.984;2023-07-16T00:15:08;33.71;30.09;36.98;;
69620;Laerm;57654;51.434;5.984;2023-07-16T00:15:19;33.32;29.56;38.03;;
69620;Laerm;57654;51.434;5.984;2023-07-16T00:15:29;32.44;29.99;41.11;;
69620;Laerm;57654;51.434;5.984;2023-07-16T00:15:40;33.22;30.22;44.27;;
69620;Laerm;57654;51.434;5.984;2023-07-16T00:15:50;33.14;30.58;36.83;;
69620;Laerm;57654;51.434;5.984;2023-07-16T00:16:00;33.40;30.19;37.45;;
69620;Laerm;57654;51.434;5.984;2023-07-16T00:16:10;32.46;30.18;38.53;;
69620;Laerm;57654;51.434;5.984;2023-07-16T00:16:21;32.03;30.03;36.02;;
69620;Laerm;57654;51.434;5.984;2023-07-16T00:16:31;32.05;29.67;38.21;;
69620;Laerm;57654;51.434;5.984;2023-07-16T00:16:41;31.99;29.36;37.20;;
69620;Laerm;57654;51.434;5.984;2023-07-16T00:16:52;32.03;29.85;35.26;;
69620;Laerm;57654;51.434;5.984;2023-07-16T00:17:02;32.05;29.90;36.66;;
69620;Laerm;57654;51.434;5.984;2023-07-16T00:17:12;32.23;29.99;36.45;;
69620;Laerm;57654;51.434;5.984;2023-07-16T00:17:23;31.93;29.24;37.28;;
69620;Laerm;57654;51.434;5.984;2023-07-16T00:17:33;32.12;29.78;37.61;;
69620;Laerm;57654;51.434;5.984;2023-07-16T00:17:44;32.42;29.72;37.98;;
69620;Laerm;57654;51.434;5.984;2023-07-16T00:17:54;32.09;29.71;36.65;;
69620;Laerm;57654;51.434;5.984;2023-07-16T00:18:05;31.87;29.83;36.71;;
69620;Laerm;57654;51.434;5.984;2023-07-16T00:18:15;32.11;30.28;36.75;;
69620;Laerm;57654;51.434;5.984;2023-07-16T00:18:26;32.21;29.90;35.24;;
69620;Laerm;57654;51.434;5.984;2023-07-16T00:18:36;31.88;29.66;36.29;;
69620;Laerm;57654;51.434;5.984;2023-07-16T00:18:46;32.08;29.80;38.80;;
69620;Laerm;57654;51.434;5.984;2023-07-16T00:18:57;31.96;29.95;36.64;;
69620;Laerm;57654;51.434;5.984;2023-07-16T00:19:09;32.19;29.36;39.55;;
69620;Laerm;57654;51.434;5.984;2023-07-16T00:19:20;31.70;29.56;34.61;;
69620;Laerm;57654;51.434;5.984;2023-07-16T00:19:30;31.82;29.63;37.30;;
69620;Laerm;57654;51.434;5.984;2023-07-16T00:19:40;31.97;29.92;36.42;;
69620;Laerm;57654;51.434;5.984;2023-07-16T00:19:50;32.13;29.62;38.55;;
69620;Laerm;57654;51.434;5.984;2023-07-16T00:20:01;33.00;30.09;41.26;;
69620;Laerm;57654;51.434;5.984;2023-07-16T00:20:11;32.23;29.91;36.62;;
69620;Laerm;57654;51.434;5.984;2023-07-16T00:20:22;32.48;29.82;45.67;;
69620;Laerm;57654;51.434;5.984;2023-07-16T00:20:35;31.86;29.54;37.44;;
69620;Laerm;57654;51.434;5.984;2023-07-16T00:20:45;32.13;29.84;38.13;;
69620;Laerm;57654;51.434;5.984;2023-07-16T00:20:56;32.14;29.75;39.60;;
69620;Laerm;57654;51.434;5.984;2023-07-16T00:21:06;32.34;30.15;37.24;;
69620;Laerm;57654;51.434;5.984;2023-07-16T00:21:16;31.98;29.94;35.17;;
69620;Laerm;57654;51.434;5.984;2023-07-16T00:21:26;32.17;29.82;36.43;;
69620;Laerm;57654;51.434;5.984;2023-07-16T00:21:37;32.22;29.53;37.09;;
69620;Laerm;57654;51.434;5.984;2023-07-16T00:21:47;32.83;29.82;36.69;;
69620;Laerm;57654;51.434;5.984;2023-07-16T00:21:57;34.20;30.54;38.28;;
69620;Laerm;57654;51.434;5.984;2023-07-16T00:22:08;32.74;30.28;36.47;;
69620;Laerm;57654;51.434;5.984;2023-07-16T00:22:18;32.34;30.54;37.71;;
69620;Laerm;57654;51.434;5.984;2023-07-16T00:22:28;33.46;30.90;36.89;;
69620;Laerm;57654;51.434;5.984;2023-07-16T00:22:38;32.49;30.42;35.94;;
69620;Laerm;57654;51.434;5.984;2023-07-16T00:22:49;32.02;29.85;35.46;;
69620;Laerm;57654;51.434;5.984;2023-07-16T00:22:59;31.90;29.72;35.20;;
69620;Laerm;57654;51.434;5.984;2023-07-16T00:23:10;32.14;30.16;35.64;;
69620;Laerm;57654;51.434;5.984;2023-07-16T00:23:20;33.14;30.00;49.96;;
69620;Laerm;57654;51.434;5.984;2023-07-16T00:23:30;32.43;30.15;36.62;;
69620;Laerm;57654;51.434;5.984;2023-07-16T00:23:41;32.14;30.19;34.95;;
69620;Laerm;57654;51.434;5.984;2023-07-16T00:23:51;32.22;30.11;35.37;;
69620;Laerm;57654;51.434;5.984;2023-07-16T00:24:02;32.36;30.25;37.70;;
69620;Laerm;57654;51.434;5.984;2023-07-16T00:24:12;32.60;30.21;38.49;;
69620;Laerm;57654;51.434;5.984;2023-07-16T00:24:22;32.62;30.02;37.32;;
69620;Laerm;57654;51.434;5.984;2023-07-16T00:24:32;32.11;29.81;38.25;;
69620;Laerm;57654;51.434;5.984;2023-07-16T00:24:43;32.09;29.79;35.35;;
69620;Laerm;57654;51.434;5.984;2023-07-16T00:24:53;32.10;29.40;36.33;;
69620;Laerm;57654;51.434;5.984;2023-07-16T00:25:03;31.78;29.73;36.13;;
69620;Laerm;57654;51.434;5.984;2023-07-16T00:25:14;32.17;29.69;37.98;;
69620;Laerm;57654;51.434;5.984;2023-07-16T00:25:24;32.33;29.66;39.86;;
69620;Laerm;57654;51.434;5.984;2023-07-16T00:25:34;32.25;30.00;37.61;;
69620;Laerm;57654;51.434;5.984;2023-07-16T00:25:45;32.15;30.09;36.49;;
69620;Laerm;57654;51.434;5.984;2023-07-16T00:25:55;32.32;30.17;35.61;;
69620;Laerm;57654;51.434;5.984;2023-07-16T00:26:05;32.35;30.05;35.79;;
69620;Laerm;57654;51.434;5.984;2023-07-16T00:26:16;32.25;30.05;36.15;;
69620;Laerm;57654;51.434;5.984;2023-07-16T00:26:26;32.52;30.18;38.61;;
69620;Laerm;57654;51.434;5.984;2023-07-16T00:26:36;32.61;30.47;36.74;;
69620;Laerm;57654;51.434;5.984;2023-07-16T00:26:47;32.67;30.24;37.30;;
69620;Laerm;57654;51.434;5.984;2023-07-16T00:26:57;32.56;29.82;39.12;;
69620;Laerm;57654;51.434;5.984;2023-07-16T00:27:07;32.59;30.37;37.02;;
69620;Laerm;57654;51.434;5.984;2023-07-16T00:27:17;32.53;30.27;36.25;;
69620;Laerm;57654;51.434;5.984;2023-07-16T00:27:28;33.72;30.45;38.93;;
69620;Laerm;57654;51.434;5.984;2023-07-16T00:27:38;34.54;31.37;37.57;;
69620;Laerm;57654;51.434;5.984;2023-07-16T00:27:48;32.81;30.43;35.96;;
69620;Laerm;57654;51.434;5.984;2023-07-16T00:27:58;33.16;30.05;37.62;;
69620;Laerm;57654;51.434;5.984;2023-07-16T00:28:09;32.00;29.94;39.38;;
69620;Laerm;57654;51.434;5.984;2023-07-16T00:28:22;32.01;29.63;35.88;;
69620;Laerm;57654;51.434;5.984;2023-07-16T00:28:32;32.01;29.79;41.93;;
69620;Laerm;57654;51.434;5.984;2023-07-16T00:28:42;31.84;29.87;35.82;;
69620;Laerm;57654;51.434;5.984;2023-07-16T00:28:52;31.76;29.72;37.95;;
69620;Laerm;57654;51.434;5.984;2023-07-16T00:29:03;31.96;30.13;36.53;;
69620;Laerm;57654;51.434;5.984;2023-07-16T00:29:13;31.63;28.90;35.86;;
69620;Laerm;57654;51.434;5.984;2023-07-16T00:29:23;31.91;29.65;37.30;;
69620;Laerm;57654;51.434;5.984;2023-07-16T00:29:34;31.71;29.60;35.29;;
69620;Laerm;57654;51.434;5.984;2023-07-16T00:29:44;31.75;29.10;37.36;;
69620;Laerm;57654;51.434;5.984;2023-07-16T00:29:54;31.95;29.70;38.77;;
69620;Laerm;57654;51.434;5.984;2023-07-16T00:30:05;32.12;29.77;39.72;;
69620;Laerm;57654;51.434;5.984;2023-07-16T00:30:15;32.04;30.19;38.93;;
69620;Laerm;57654;51.434;5.984;2023-07-16T00:30:25;31.96;29.82;39.15;;
69620;Laerm;57654;51.434;5.984;2023-07-16T00:30:36;31.46;29.53;34.93;;
69620;Laerm;57654;51.434;5.984;2023-07-16T00:30:46;31.51;29.64;34.98;;
69620;Laerm;57654;51.434;5.984;2023-07-16T00:30:56;31.92;29.68;35.83;;
69620;Laerm;57654;51.434;5.984;2023-07-16T00:31:07;32.05;29.71;36.25;;
69620;Laerm;57654;51.434;5.984;2023-07-16T00:31:17;32.06;29.76;38.12;;
69620;Laerm;57654;51.434;5.984;2023-07-16T00:31:27;31.82;29.67;38.40;;
69620;Laerm;57654;51.434;5.984;2023-07-16T00:31:37;31.94;29.54;36.08;;
69620;Laerm;57654;51.434;5.984;2023-07-16T00:31:48;32.03;29.87;39.16;;
69620;Laerm;57654;51.434;5.984;2023-07-16T00:31:58;32.01;29.98;36.08;;
69620;Laerm;57654;51.434;5.984;2023-07-16T00:32:08;31.86;29.82;35.32;;
69620;Laerm;57654;51.434;5.984;2023-07-16T00:32:18;32.04;29.62;37.78;;
69620;Laerm;57654;51.434;5.984;2023-07-16T00:32:29;32.00;29.19;37.51;;
69620;Laerm;57654;51.434;5.984;2023-07-16T00:32:39;32.06;29.95;38.82;;
69620;Laerm;57654;51.434;5.984;2023-07-16T00:32:49;32.26;29.47;38.82;;
69620;Laerm;57654;51.434;5.984;2023-07-16T00:32:59;32.08;29.61;41.26;;
69620;Laerm;57654;51.434;5.984;2023-07-16T00:33:10;32.02;30.16;35.75;;
69620;Laerm;57654;51.434;5.984;2023-07-16T00:33:20;32.05;29.70;36.80;;
69620;Laerm;57654;51.434;5.984;2023-07-16T00:33:31;31.75;29.78;39.86;;
69620;Laerm;57654;51.434;5.984;2023-07-16T00:33:41;31.82;29.60;35.36;;
69620;Laerm;57654;51.434;5.984;2023-07-16T00:33:51;31.90;29.83;38.75;;
69620;Laerm;57654;51.434;5.984;2023-07-16T00:34:01;31.62;29.55;35.99;;
69620;Laerm;57654;51.434;5.984;2023-07-16T00:34:12;31.91;29.76;37.94;;
69620;Laerm;57654;51.434;5.984;2023-07-16T00:34:23;34.43;29.88;46.11;;
69620;Laerm;57654;51.434;5.984;2023-07-16T00:34:33;31.66;29.30;37.95;;
69620;Laerm;57654;51.434;5.984;2023-07-16T00:34:43;31.60;29.79;34.40;;
69620;Laerm;57654;51.434;5.984;2023-07-16T00:34:54;31.67;29.48;36.29;;
69620;Laerm;57654;51.434;5.984;2023-07-16T00:35:05;32.03;29.64;36.27;;
69620;Laerm;57654;51.434;5.984;2023-07-16T00:35:16;32.02;30.04;41.59;;
69620;Laerm;57654;51.434;5.984;2023-07-16T00:35:26;32.25;29.95;36.11;;
69620;Laerm;57654;51.434;5.984;2023-07-16T00:35:36;32.43;29.90;36.61;;
69620;Laerm;57654;51.434;5.984;2023-07-16T00:35:47;32.31;29.88;36.12;;
69620;Laerm;57654;51.434;5.984;2023-07-16T00:35:58;31.82;29.80;36.29;;
69620;Laerm;57654;51.434;5.984;2023-07-16T00:36:08;32.30;29.79;40.82;;
69620;Laerm;57654;51.434;5.984;2023-07-16T00:36:19;31.91;29.79;34.41;;
69620;Laerm;57654;51.434;5.984;2023-07-16T00:36:29;32.87;29.93;37.83;;
69620;Laerm;57654;51.434;5.984;2023-07-16T00:36:40;32.53;29.74;37.01;;
69620;Laerm;57654;51.434;5.984;2023-07-16T00:36:50;33.04;30.03;37.63;;
69620;Laerm;57654;51.434;5.984;2023-07-16T00:37:00;33.20;30.24;39.70;;
69620;Laerm;57654;51.434;5.984;2023-07-16T00:37:13;32.59;30.28;43.28;;
69620;Laerm;57654;51.434;5.984;2023-07-16T00:37:23;32.23;30.22;40.83;;
69620;Laerm;57654;51.434;5.984;2023-07-16T00:37:34;31.95;29.81;37.30;;
69620;Laerm;57654;51.434;5.984;2023-07-16T00:37:44;31.84;29.82;35.25;;
69620;Laerm;57654;51.434;5.984;2023-07-16T00:37:55;32.35;29.79;36.54;;
69620;Laerm;57654;51.434;5.984;2023-07-16T00:38:05;31.84;29.83;34.93;;
69620;Laerm;57654;51.434;5.984;2023-07-16T00:38:19;31.84;29.99;36.05;;
69620;Laerm;57654;51.434;5.984;2023-07-16T00:38:29;31.83;29.51;35.64;;
69620;Laerm;57654;51.434;5.984;2023-07-16T00:38:40;31.79;29.71;36.59;;
69620;Laerm;57654;51.434;5.984;2023-07-16T00:38:52;32.17;29.88;39.35;;
69620;Laerm;57654;51.434;5.984;2023-07-16T00:39:02;31.83;29.25;36.90;;
69620;Laerm;57654;51.434;5.984;2023-07-16T00:39:13;31.98;29.84;37.11;;
69620;Laerm;57654;51.434;5.984;2023-07-16T00:39:23;31.88;29.50;37.22;;
69620;Laerm;57654;51.434;5.984;2023-07-16T00:39:34;31.90;29.38;36.05;;
69620;Laerm;57654;51.434;5.984;2023-07-16T00:39:44;32.51;29.81;46.32;;
69620;Laerm;57654;51.434;5.984;2023-07-16T00:39:54;32.26;29.49;36.08;;
69620;Laerm;57654;51.434;5.984;2023-07-16T00:40:05;32.70;30.35;36.51;;
69620;Laerm;57654;51.434;5.984;2023-07-16T00:40:15;31.79;29.73;36.44;;
69620;Laerm;57654;51.434;5.984;2023-07-16T00:40:25;31.54;29.41;35.78;;
69620;Laerm;57654;51.434;5.984;2023-07-16T00:40:36;31.73;29.48;35.25;;
69620;Laerm;57654;51.434;5.984;2023-07-16T00:40:46;31.86;29.77;35.66;;
69620;Laerm;57654;51.434;5.984;2023-07-16T00:40:57;31.61;29.83;35.13;;
69620;Laerm;57654;51.434;5.984;2023-07-16T00:41:07;31.87;29.49;39.37;;
69620;Laerm;57654;51.434;5.984;2023-07-16T00:41:17;31.83;29.81;36.33;;
69620;Laerm;57654;51.434;5.984;2023-07-16T00:41:27;31.51;29.54;34.98;;
69620;Laerm;57654;51.434;5.984;2023-07-16T00:41:38;31.53;29.68;36.64;;
69620;Laerm;57654;51.434;5.984;2023-07-16T00:41:48;31.72;29.75;36.28;;
69620;Laerm;57654;51.434;5.984;2023-07-16T00:41:58;32.15;29.73;42.30;;
69620;Laerm;57654;51.434;5.984;2023-07-16T00:42:08;32.86;29.96;37.27;;
69620;Laerm;57654;51.434;5.984;2023-07-16T00:42:19;33.70;30.30;37.62;;
69620;Laerm;57654;51.434;5.984;2023-07-16T00:42:29;32.72;29.92;38.99;;
69620;Laerm;57654;51.434;5.984;2023-07-16T00:42:39;32.83;29.43;39.39;;
69620;Laerm;57654;51.434;5.984;2023-07-16T00:42:49;32.09;29.82;36.82;;
69620;Laerm;57654;51.434;5.984;2023-07-16T00:43:00;32.48;30.14;37.30;;
69620;Laerm;57654;51.434;5.984;2023-07-16T00:43:10;32.57;29.99;35.99;;
69620;Laerm;57654;51.434;5.984;2023-07-16T00:43:20;33.65;30.63;38.11;;
69620;Laerm;57654;51.434;5.984;2023-07-16T00:43:30;33.01;30.15;38.03;;
69620;Laerm;57654;51.434;5.984;2023-07-16T00:43:41;32.53;29.87;35.52;;
69620;Laerm;57654;51.434;5.984;2023-07-16T00:43:51;32.75;30.47;36.55;;
69620;Laerm;57654;51.434;5.984;2023-07-16T00:44:04;32.82;29.52;37.00;;
69620;Laerm;57654;51.434;5.984;2023-07-16T00:44:14;32.53;29.74;36.98;;
69620;Laerm;57654;51.434;5.984;2023-07-16T00:44:24;32.14;30.33;37.14;;
69620;Laerm;57654;51.434;5.984;2023-07-16T00:44:34;31.99;29.65;37.10;;
69620;Laerm;57654;51.434;5.984;2023-07-16T00:44:45;32.13;29.50;37.03;;
69620;Laerm;57654;51.434;5.984;2023-07-16T00:44:55;32.69;29.90;37.41;;
69620;Laerm;57654;51.434;5.984;2023-07-16T00:45:09;31.89;29.74;36.61;;
69620;Laerm;57654;51.434;5.984;2023-07-16T00:45:21;32.78;30.10;36.13;;
69620;Laerm;57654;51.434;5.984;2023-07-16T00:45:31;33.24;29.47;37.48;;
69620;Laerm;57654;51.434;5.984;2023-07-16T00:45:42;32.75;29.56;37.80;;
69620;Laerm;57654;51.434;5.984;2023-07-16T00:45:55;35.29;29.84;55.48;;
69620;Laerm;57654;51.434;5.984;2023-07-16T00:46:05;33.18;29.89;36.76;;
69620;Laerm;57654;51.434;5.984;2023-07-16T00:46:15;33.24;30.07;36.79;;
69620;Laerm;57654;51.434;5.984;2023-07-16T00:46:26;33.50;30.31;37.44;;
69620;Laerm;57654;51.434;5.984;2023-07-16T00:46:36;34.69;30.75;38.29;;
69620;Laerm;57654;51.434;5.984;2023-07-16T00:46:46;33.48;30.49;36.35;;
69620;Laerm;57654;51.434;5.984;2023-07-16T00:46:57;32.89;29.85;36.24;;
69620;Laerm;57654;51.434;5.984;2023-07-16T00:47:08;32.18;29.47;37.21;;
69620;Laerm;57654;51.434;5.984;2023-07-16T00:47:18;31.79;29.34;35.56;;
69620;Laerm;57654;51.434;5.984;2023-07-16T00:47:28;32.82;30.37;36.67;;
69620;Laerm;57654;51.434;5.984;2023-07-16T00:47:39;34.11;29.92;39.35;;
69620;Laerm;57654;51.434;5.984;2023-07-16T00:47:49;33.07;29.79;37.29;;
69620;Laerm;57654;51.434;5.984;2023-07-16T00:48:00;32.60;29.72;36.54;;
69620;Laerm;57654;51.434;5.984;2023-07-16T00:48:10;32.74;30.17;38.20;;
69620;Laerm;57654;51.434;5.984;2023-07-16T00:48:21;32.78;29.92;38.02;;
69620;Laerm;57654;51.434;5.984;2023-07-16T00:48:31;31.99;30.08;39.24;;
69620;Laerm;57654;51.434;5.984;2023-07-16T00:48:42;32.08;30.09;37.73;;
69620;Laerm;57654;51.434;5.984;2023-07-16T00:48:53;31.98;30.25;36.40;;
69620;Laerm;57654;51.434;5.984;2023-07-16T00:49:04;31.97;30.03;36.70;;
69620;Laerm;57654;51.434;5.984;2023-07-16T00:49:14;32.12;29.53;42.01;;
69620;Laerm;57654;51.434;5.984;2023-07-16T00:49:24;31.84;29.86;37.77;;
69620;Laerm;57654;51.434;5.984;2023-07-16T00:49:35;31.55;29.56;35.00;;
69620;Laerm;57654;51.434;5.984;2023-07-16T00:49:45;31.70;29.36;35.90;;
69620;Laerm;57654;51.434;5.984;2023-07-16T00:49:55;31.74;29.66;36.66;;
69620;Laerm;57654;51.434;5.984;2023-07-16T00:50:06;32.01;29.71;36.38;;
69620;Laerm;57654;51.434;5.984;2023-07-16T00:50:17;31.51;29.38;36.72;;
69620;Laerm;57654;51.434;5.984;2023-07-16T00:50:28;31.70;29.37;35.42;;
69620;Laerm;57654;51.434;5.984;2023-07-16T00:50:43;31.68;29.68;35.98;;
69620;Laerm;57654;51.434;5.984;2023-07-16T00:50:54;31.73;29.83;36.46;;
69620;Laerm;57654;51.434;5.984;2023-07-16T00:51:05;31.92;29.98;36.45;;
69620;Laerm;57654;51.434;5.984;2023-07-16T00:51:16;31.84;29.64;38.60;;
69620;Laerm;57654;51.434;5.984;2023-07-16T00:51:27;31.96;29.77;38.33;;
69620;Laerm;57654;51.434;5.984;2023-07-16T00:51:37;31.96;29.89;37.15;;
69620;Laerm;57654;51.434;5.984;2023-07-16T00:51:48;32.27;29.94;46.36;;
69620;Laerm;57654;51.434;5.984;2023-07-16T00:51:58;31.84;29.91;34.71;;
69620;Laerm;57654;51.434;5.984;2023-07-16T00:52:11;31.79;29.81;39.93;;
69620;Laerm;57654;51.434;5.984;2023-07-16T00:52:22;31.90;29.67;44.28;;
69620;Laerm;57654;51.434;5.984;2023-07-16T00:52:32;31.65;29.87;36.34;;
69620;Laerm;57654;51.434;5.984;2023-07-16T00:52:42;31.46;29.64;34.69;;
69620;Laerm;57654;51.434;5.984;2023-07-16T00:52:54;31.50;29.13;37.84;;
69620;Laerm;57654;51.434;5.984;2023-07-16T00:53:07;31.57;29.56;35.61;;
69620;Laerm;57654;51.434;5.984;2023-07-16T00:53:17;31.74;29.72;39.23;;
69620;Laerm;57654;51.434;5.984;2023-07-16T00:53:29;32.30;30.00;37.00;;
69620;Laerm;57654;51.434;5.984;2023-07-16T00:53:40;32.47;29.82;39.79;;
69620;Laerm;57654;51.434;5.984;2023-07-16T00:53:51;32.68;30.11;36.22;;
69620;Laerm;57654;51.434;5.984;2023-07-16T00:54:01;33.07;30.16;36.05;;
69620;Laerm;57654;51.434;5.984;2023-07-16T00:54:12;33.02;30.18;36.83;;
69620;Laerm;57654;51.434;5.984;2023-07-16T00:54:22;32.67;29.83;36.41;;
69620;Laerm;57654;51.434;5.984;2023-07-16T00:54:33;32.13;29.71;36.24;;
69620;Laerm;57654;51.434;5.984;2023-07-16T00:54:44;32.02;29.70;36.24;;
69620;Laerm;57654;51.434;5.984;2023-07-16T00:54:54;31.97;29.92;39.22;;
69620;Laerm;57654;51.434;5.984;2023-07-16T00:55:05;31.82;29.66;36.96;;
69620;Laerm;57654;51.434;5.984;2023-07-16T00:55:16;32.06;30.06;35.94;;
69620;Laerm;57654;51.434;5.984;2023-07-16T00:55:26;31.94;29.66;37.43;;
69620;Laerm;57654;51.434;5.984;2023-07-16T00:55:37;31.81;29.90;36.00;;
69620;Laerm;57654;51.434;5.984;2023-07-16T00:55:48;32.36;29.64;36.64;;
69620;Laerm;57654;51.434;5.984;2023-07-16T00:55:58;32.98;30.39;39.26;;
69620;Laerm;57654;51.434;5.984;2023-07-16T00:56:09;32.85;29.83;36.88;;
69620;Laerm;57654;51.434;5.984;2023-07-16T00:56:20;32.75;30.18;36.63;;
69620;Laerm;57654;51.434;5.984;2023-07-16T00:56:31;31.92;30.07;37.92;;
69620;Laerm;57654;51.434;5.984;2023-07-16T00:56:41;31.92;29.70;39.11;;
69620;Laerm;57654;51.434;5.984;2023-07-16T00:56:52;31.73;29.47;35.85;;
69620;Laerm;57654;51.434;5.984;2023-07-16T00:57:02;31.87;29.53;37.10;;
69620;Laerm;57654;51.434;5.984;2023-07-16T00:57:13;31.57;29.62;35.13;;
69620;Laerm;57654;51.434;5.984;2023-07-16T00:57:23;31.70;29.78;35.78;;
69620;Laerm;57654;51.434;5.984;2023-07-16T00:57:33;31.86;30.11;36.57;;
69620;Laerm;57654;51.434;5.984;2023-07-16T00:57:44;31.99;29.89;39.98;;
69620;Laerm;57654;51.434;5.984;2023-07-16T00:57:55;31.79;29.92;35.25;;
69620;Laerm;57654;51.434;5.984;2023-07-16T00:58:08;31.92;29.92;35.30;;
69620;Laerm;57654;51.434;5.984;2023-07-16T00:58:18;32.13;29.77;38.45;;
69620;Laerm;57654;51.434;5.984;2023-07-16T00:58:28;31.79;29.85;36.25;;
69620;Laerm;57654;51.434;5.984;2023-07-16T00:58:39;32.12;29.90;35.64;;
69620;Laerm;57654;51.434;5.984;2023-07-16T00:58:49;32.46;29.95;37.65;;